createdAt,value
2024-02-08T00:02:27.970Z,96280.28
2024-02-08T00:06:33.576Z,96279.66
2024-02-08T00:10:36.672Z,96276.38
2024-02-08T00:14:40.974Z,96269.13
2024-02-08T00:18:45.694Z,96265.84
2024-02-08T00:22:50.822Z,96267.25
2024-02-08T00:26:53.748Z,96268.31
2024-02-08T00:30:57.965Z,96263.94
2024-02-08T00:35:07.872Z,96262.91
2024-02-08T00:39:12.866Z,96258.59
2024-02-08T00:43:15.597Z,96246.59
2024-02-08T00:47:19.708Z,96247.00
2024-02-08T00:51:22.583Z,96256.50
2024-02-08T00:55:27.291Z,96252.16
2024-02-08T00:59:29.958Z,96256.72
2024-02-08T01:03:34.220Z,96263.09
2024-02-08T01:07:37.138Z,96256.94
2024-02-08T01:11:39.918Z,96253.81
2024-02-08T01:15:43.361Z,96262.09
2024-02-08T01:19:48.230Z,96258.59
2024-02-08T01:23:50.988Z,96251.34
2024-02-08T01:27:53.672Z,96250.53
2024-02-08T01:31:56.600Z,96253.22
2024-02-08T01:36:00.632Z,96262.69
2024-02-08T01:40:03.485Z,96260.59
2024-02-08T01:44:08.716Z,96255.25
2024-02-08T01:48:13.584Z,96235.25
2024-02-08T01:52:20.494Z,96237.72
2024-02-08T01:56:23.482Z,96246.38
2024-02-08T02:00:26.365Z,96231.28
2024-02-08T02:04:31.451Z,96235.03
2024-02-08T02:08:35.545Z,96230.47
2024-02-08T02:12:38.382Z,96232.34
2024-02-08T02:16:41.232Z,96222.63
2024-02-08T02:20:43.921Z,96220.16
2024-02-08T02:24:51.203Z,96221.44
2024-02-08T02:28:54.204Z,96201.59
2024-02-08T02:33:01.480Z,96197.28
2024-02-08T02:37:05.875Z,96197.66
2024-02-08T02:41:10.130Z,96202.81
2024-02-08T02:45:14.333Z,96211.69
2024-02-08T02:49:18.998Z,96212.88
2024-02-08T02:53:21.693Z,96208.56
2024-02-08T02:57:25.701Z,96196.97
2024-02-08T03:01:28.746Z,96200.25
2024-02-08T03:05:32.141Z,96195.28
2024-02-08T03:09:35.437Z,96195.47
2024-02-08T03:13:41.120Z,96205.59
2024-02-08T03:17:44.048Z,96192.16
2024-02-08T03:21:46.904Z,96193.81
2024-02-08T03:25:50.617Z,96195.66
2024-02-08T03:29:55.496Z,96192.16
2024-02-08T03:33:58.323Z,96194.84
2024-02-08T03:38:02.405Z,96188.25
2024-02-08T03:42:07.015Z,96197.31
2024-02-08T03:46:11.924Z,96197.31
2024-02-08T03:50:14.863Z,96195.28
2024-02-08T03:54:20.899Z,96200.00
2024-02-08T03:58:25.318Z,96199.78
2024-02-08T04:02:29.817Z,96201.44
2024-02-08T04:06:50.828Z,96188.44
2024-02-08T04:11:08.079Z,96185.56
2024-02-08T04:15:30.303Z,96198.78
2024-02-08T04:19:52.207Z,96193.63
2024-02-08T04:24:12.467Z,96191.34
2024-02-08T04:28:32.894Z,96195.47
2024-02-08T04:33:04.924Z,96189.66
2024-02-08T04:37:26.676Z,96187.81
2024-02-08T04:41:46.849Z,96181.59
2024-02-08T04:46:06.941Z,96185.09
2024-02-08T04:50:27.730Z,96193.97
2024-02-08T04:54:31.779Z,96193.53
2024-02-08T04:58:57.286Z,96191.44
2024-02-08T05:03:02.060Z,96195.16
2024-02-08T05:07:05.954Z,96184.16
2024-02-08T05:11:11.550Z,96185.38
2024-02-08T05:15:15.287Z,96185.97
2024-02-08T05:19:18.047Z,96187.59
2024-02-08T05:23:20.788Z,96178.13
2024-02-08T05:27:26.220Z,96178.94
2024-02-08T05:31:29.136Z,96182.00
2024-02-08T05:35:34.568Z,96182.41
2024-02-08T05:39:37.937Z,96177.63
2024-02-08T05:43:46.117Z,96184.63
2024-02-08T05:47:50.640Z,96179.50
2024-02-08T05:51:55.939Z,96190.84
2024-02-08T05:56:00.610Z,96180.31
2024-02-08T06:00:11.274Z,96180.31
2024-02-08T06:04:15.040Z,96187.56
2024-02-08T06:08:27.044Z,96183.59
2024-02-08T06:12:44.803Z,96184.63
2024-02-08T06:16:49.884Z,96178.00
2024-02-08T06:21:01.251Z,96175.69
2024-02-08T06:25:10.508Z,96195.31
2024-02-08T06:29:20.131Z,96192.03
2024-02-08T06:33:27.414Z,96189.72
2024-02-08T06:37:31.787Z,96189.28
2024-02-08T06:41:52.757Z,96178.31
2024-02-08T06:46:11.310Z,96184.50
2024-02-08T06:50:33.432Z,96193.16
2024-02-08T06:54:53.729Z,96190.41
2024-02-08T06:59:14.754Z,96185.63
2024-02-08T07:03:35.336Z,96192.63
2024-02-08T07:07:57.958Z,96197.19
2024-02-08T07:12:14.535Z,96203.41
2024-02-08T07:16:35.013Z,96191.00
2024-02-08T07:20:55.170Z,96187.47
2024-02-08T07:25:16.467Z,96193.09
2024-02-08T07:29:36.752Z,96190.63
2024-02-08T07:33:57.391Z,96190.63
2024-02-08T07:38:01.275Z,96192.84
2024-02-08T07:42:14.178Z,96202.97
2024-02-08T07:46:18.144Z,96190.34
2024-02-08T07:50:26.041Z,96188.03
2024-02-08T07:54:31.352Z,96193.19
2024-02-08T07:58:38.307Z,96203.69
2024-02-08T08:02:44.165Z,96209.44
2024-02-08T08:06:49.275Z,96207.59
2024-02-08T08:10:57.999Z,96202.81
2024-02-08T08:15:18.096Z,96204.44
2024-02-08T08:19:39.548Z,96216.03
2024-02-08T08:24:01.069Z,96198.03
2024-02-08T08:28:31.494Z,96204.22
2024-02-08T08:32:53.943Z,96203.19
2024-02-08T08:37:00.379Z,96202.97
2024-02-08T08:41:08.509Z,96195.50
2024-02-08T08:45:11.559Z,96191.38
2024-02-08T08:49:21.967Z,96196.09
2024-02-08T08:53:28.601Z,96190.69
2024-02-08T08:57:31.539Z,96188.47
2024-02-08T09:01:37.670Z,96186.38
2024-02-08T09:05:44.807Z,96192.56
2024-02-08T09:10:13.304Z,96192.38
2024-02-08T09:14:18.166Z,96189.22
2024-02-08T09:18:20.935Z,96187.72
2024-02-08T09:22:25.233Z,96191.25
2024-02-08T09:26:34.616Z,96194.31
2024-02-08T09:30:40.245Z,96189.28
2024-02-08T09:34:43.304Z,96185.19
2024-02-08T09:38:52.556Z,96196.75
2024-02-08T09:42:57.537Z,96192.22
2024-02-08T09:47:05.924Z,96187.19
2024-02-08T09:51:14.923Z,96197.50
2024-02-08T09:55:21.166Z,96177.38
2024-02-08T09:59:52.101Z,96185.00
2024-02-08T10:04:06.125Z,96179.53
2024-02-08T10:08:12.925Z,96190.91
2024-02-08T10:12:21.824Z,96180.34
2024-02-08T10:16:51.194Z,96187.72
2024-02-08T10:20:57.488Z,96182.78
2024-02-08T10:25:17.747Z,96182.19
2024-02-08T10:29:26.362Z,96169.22
2024-02-08T10:33:37.426Z,96168.69
2024-02-08T10:37:48.522Z,96154.28
2024-02-08T10:41:59.265Z,96165.16
2024-02-08T10:46:04.373Z,96158.59
2024-02-08T10:50:21.339Z,96140.81
2024-02-08T10:54:25.117Z,96120.84
2024-02-08T10:58:51.365Z,96123.53
2024-02-08T11:03:02.230Z,96121.84
2024-02-08T11:07:16.442Z,96113.56
2024-02-08T11:11:22.238Z,96120.19
2024-02-08T11:15:32.805Z,96119.50
2024-02-08T11:19:41.075Z,96104.22
2024-02-08T11:23:50.479Z,96110.84
2024-02-08T11:28:00.229Z,96085.13
2024-02-08T11:32:18.441Z,96085.63
2024-02-08T11:36:36.074Z,96083.50
2024-02-08T11:40:39.082Z,96083.91
2024-02-08T11:44:44.927Z,96070.06
2024-02-08T11:48:49.380Z,96084.94
2024-02-08T11:53:00.835Z,96083.97
2024-02-08T11:57:10.064Z,96070.13
2024-02-08T12:01:18.597Z,96074.22
2024-02-08T12:05:22.238Z,96046.28
2024-02-08T12:09:32.469Z,96041.38
2024-02-08T12:13:41.253Z,96043.91
2024-02-08T12:17:50.232Z,96035.25
2024-02-08T12:22:00.504Z,96025.81
2024-02-08T12:26:08.607Z,96026.72
2024-02-08T12:30:13.106Z,96025.41
2024-02-08T12:34:17.549Z,96019.75
2024-02-08T12:38:22.598Z,96012.31
2024-02-08T12:42:26.807Z,96006.41
2024-02-08T12:46:29.898Z,96014.22
2024-02-08T12:50:39.681Z,96004.78
2024-02-08T12:54:42.927Z,95992.19
2024-02-08T12:58:47.081Z,95996.25
2024-02-08T13:02:55.709Z,95986.78
2024-02-08T13:06:58.848Z,95985.88
2024-02-08T13:11:03.113Z,95966.41
2024-02-08T13:15:08.403Z,95971.00
2024-02-08T13:19:15.459Z,95963.72
2024-02-08T13:23:18.394Z,95968.59
2024-02-08T13:27:25.820Z,95961.00
2024-02-08T13:31:30.373Z,95948.31
2024-02-08T13:35:41.248Z,95939.88
2024-02-08T13:39:44.678Z,95926.66
2024-02-08T13:43:50.139Z,95925.81
2024-02-08T13:47:57.984Z,95922.38
2024-02-08T13:52:02.706Z,95919.94
2024-02-08T13:56:08.106Z,95915.56
2024-02-08T14:00:11.642Z,95899.38
2024-02-08T14:04:21.987Z,95897.25
2024-02-08T14:08:28.786Z,95891.03
2024-02-08T14:12:35.153Z,95896.28
2024-02-08T14:16:38.693Z,95894.13
2024-02-08T14:20:45.091Z,95880.69
2024-02-08T14:24:52.609Z,95882.06
2024-02-08T14:28:57.363Z,95886.16
2024-02-08T14:33:00.473Z,95892.59
2024-02-08T14:37:06.423Z,95892.03
2024-02-08T14:41:24.871Z,95882.06
2024-02-08T14:45:36.797Z,95884.25
2024-02-08T14:49:56.311Z,95888.28
2024-02-08T14:54:00.895Z,95885.38
2024-02-08T14:58:03.776Z,95892.16
2024-02-08T15:02:14.901Z,95899.97
2024-02-08T15:06:31.942Z,95887.53
2024-02-08T15:10:45.060Z,95887.78
2024-02-08T15:14:48.086Z,95873.13
2024-02-08T15:18:54.793Z,95876.91
2024-02-08T15:23:10.977Z,95861.75
2024-02-08T15:27:19.476Z,95866.94
2024-02-08T15:31:38.800Z,95862.34
2024-02-08T15:35:53.147Z,95864.03
2024-02-08T15:40:11.020Z,95866.47
2024-02-08T15:44:20.111Z,95858.69
2024-02-08T15:48:33.465Z,95866.88
2024-02-08T15:52:36.685Z,95856.97
2024-02-08T15:56:39.347Z,95844.56
2024-02-08T16:01:01.142Z,95838.63
2024-02-08T16:05:14.666Z,95849.41
2024-02-08T16:09:28.438Z,95863.91
2024-02-08T16:13:35.966Z,95873.00
2024-02-08T16:17:59.604Z,95873.25
2024-02-08T16:22:20.369Z,95872.44
2024-02-08T16:26:31.996Z,95875.66
2024-02-08T16:30:35.514Z,95877.97
2024-02-08T16:34:51.924Z,95885.91
2024-02-08T16:38:58.392Z,95885.34
2024-02-08T16:43:11.871Z,95876.91
2024-02-08T16:47:29.140Z,95868.75
2024-02-08T16:51:39.266Z,95857.84
2024-02-08T16:55:48.329Z,95845.94
2024-02-08T16:59:54.365Z,95834.31
2024-02-08T17:04:18.467Z,95828.03
2024-02-08T17:08:23.742Z,95831.25
2024-02-08T17:12:46.058Z,95834.75
2024-02-08T17:16:49.235Z,95843.63
2024-02-08T17:21:06.388Z,95864.38
2024-02-08T17:25:42.965Z,95842.97
2024-02-08T17:29:52.150Z,95839.72
2024-02-08T17:33:57.697Z,95845.59
2024-02-08T17:38:02.354Z,95852.88
2024-02-08T17:42:09.936Z,95851.31
2024-02-08T17:46:12.997Z,95854.59
2024-02-08T17:50:30.598Z,95841.59
2024-02-08T17:54:45.819Z,95833.50
2024-02-08T17:58:56.395Z,95826.13
2024-02-08T18:03:01.232Z,95824.75
2024-02-08T18:07:10.609Z,95832.53
2024-02-08T18:11:17.556Z,95827.13
2024-02-08T18:15:25.645Z,95826.88
2024-02-08T18:19:33.644Z,95816.84
2024-02-08T18:23:36.767Z,95808.19
2024-02-08T18:27:40.838Z,95801.94
2024-02-08T18:31:47.840Z,95797.88
2024-02-08T18:35:53.193Z,95785.13
2024-02-08T18:39:56.795Z,95788.31
2024-02-08T18:43:59.551Z,95786.69
2024-02-08T18:48:05.159Z,95787.50
2024-02-08T18:52:09.342Z,95794.78
2024-02-08T18:56:12.464Z,95799.34
2024-02-08T19:00:23.925Z,95795.28
2024-02-08T19:04:30.818Z,95796.09
2024-02-08T19:08:37.565Z,95790.38
2024-02-08T19:12:42.494Z,95788.19
2024-02-08T19:16:45.664Z,95788.44
2024-02-08T19:20:50.978Z,95787.63
2024-02-08T19:24:53.980Z,95786.22
2024-02-08T19:28:58.661Z,95780.25
2024-02-08T19:33:06.426Z,95792.38
2024-02-08T19:37:13.264Z,95786.63
2024-02-08T19:41:19.967Z,95774.72
2024-02-08T19:45:32.248Z,95776.38
2024-02-08T19:49:35.051Z,95783.63
2024-02-08T19:53:39.998Z,95781.44
2024-02-08T19:57:46.889Z,95776.75
2024-02-08T20:01:49.697Z,95775.94
2024-02-08T20:05:52.532Z,95771.88
2024-02-08T20:09:56.934Z,95776.69
2024-02-08T20:14:01.282Z,95752.34
2024-02-08T20:18:05.186Z,95754.47
2024-02-08T20:22:13.235Z,95739.84
2024-02-08T20:26:24.474Z,95750.25
2024-02-08T20:30:29.518Z,95746.41
2024-02-08T20:34:33.476Z,95736.81
2024-02-08T20:38:36.917Z,95739.44
2024-02-08T20:42:41.052Z,95725.28
2024-02-08T20:46:45.297Z,95739.75
2024-02-08T20:50:48.322Z,95724.91
2024-02-08T20:54:55.067Z,95717.06
2024-02-08T20:59:00.019Z,95735.69
2024-02-08T21:03:03.709Z,95706.19
2024-02-08T21:07:07.574Z,95711.84
2024-02-08T21:11:13.082Z,95715.00
2024-02-08T21:15:18.261Z,95727.81
2024-02-08T21:19:22.242Z,95725.03
2024-02-08T21:23:25.870Z,95742.53
2024-02-08T21:27:32.042Z,95729.06
2024-02-08T21:31:36.095Z,95721.22
2024-02-08T21:35:39.366Z,95736.28
2024-02-08T21:39:48.092Z,95739.16
2024-02-08T21:43:51.803Z,95739.63
2024-02-08T21:47:58.409Z,95733.66
2024-02-08T21:52:01.395Z,95727.94
2024-02-08T21:56:04.274Z,95720.84
2024-02-08T22:00:12.605Z,95704.84
2024-02-08T22:04:18.445Z,95720.88
2024-02-08T22:08:21.309Z,95717.03
2024-02-08T22:12:25.033Z,95725.47
2024-02-08T22:16:27.850Z,95729.31
2024-02-08T22:20:33.935Z,95732.00
2024-02-08T22:24:38.588Z,95719.59
2024-02-08T22:28:42.757Z,95725.31
2024-02-08T22:32:47.622Z,95714.53
2024-02-08T22:36:52.044Z,95707.53
2024-02-08T22:40:59.371Z,95702.16
2024-02-08T22:45:02.289Z,95702.16
2024-02-08T22:49:06.954Z,95686.81
2024-02-08T22:53:14.036Z,95694.97
2024-02-08T22:57:16.830Z,95730.22
2024-02-08T23:01:35.250Z,95715.38
2024-02-08T23:05:40.903Z,95712.91
2024-02-08T23:09:45.246Z,95716.41
2024-02-08T23:13:48.461Z,95710.47
2024-02-08T23:17:56.124Z,95709.41
2024-02-08T23:22:00.786Z,95710.69
2024-02-08T23:26:05.512Z,95706.97
2024-02-08T23:30:10.932Z,95705.31
2024-02-08T23:34:14.071Z,95694.53
2024-02-08T23:38:20.257Z,95701.00
2024-02-08T23:42:24.516Z,95700.50
2024-02-08T23:46:27.719Z,95697.72
2024-02-08T23:50:30.635Z,95687.19
2024-02-08T23:54:33.575Z,95695.03
2024-02-08T23:58:41.954Z,95688.59
